Kongen — LCDE — position and weather

sailwx.info

Track history (hours):
 
Tides and Currents Weather Stations Pressure Air Temp Water Temp Dewpoint Dewpoint Depression Visibility Wind Speed Wind Dir Waves Ship Positions

Kongen

Last reported at 2017-May-27 04:00 UTC. Time now 2017-May-27 04:06 UTC.
Position N 59°52' E 010°39'.

Length 50 m; draft 3.2 m.

Type: Passenger vessel. MMSI: 258509000.

Date/timePositionNaut miles runAvg speedWind from/ knotsBaromVisibWave heightAir tempDewpointWater temp
2017-May-27 04:00N 59°52' E 010°39'0 0.0
2017-May-27 03:28N 59°52' E 010°39'0 0.0
2017-May-27 02:58N 59°52' E 010°39'0 0.0
2017-May-27 02:28N 59°52' E 010°39'0 0.0
2017-May-27 01:59N 59°52' E 010°39'3 6.5
2017-May-27 01:30N 59°55' E 010°44'3 6.5
2017-May-27 01:00N 59°52' E 010°39'3 6.4
2017-May-27 00:30N 59°55' E 010°44'3 6.4
2017-May-27 00:00N 59°52' E 010°39'3 6.2
2017-May-26 23:29N 59°55' E 010°44'0 0.0
2017-May-26 23:00N 59°55' E 010°44'3 5.8
2017-May-26 22:30N 59°53' E 010°40'3 5.8
2017-May-26 22:00N 59°55' E 010°44'3 6.4
2017-May-26 21:30N 59°52' E 010°39'3 6.4
2017-May-26 21:00N 59°55' E 010°44'3 6.4
2017-May-26 20:30N 59°52' E 010°39'3 6.4
2017-May-26 20:00N 59°55' E 010°44'3 6.4
2017-May-26 19:30N 59°52' E 010°39'3 6.3
2017-May-26 18:59N 59°55' E 010°44'3 6.6
2017-May-26 18:30N 59°52' E 010°39'3 6.3
2017-May-26 18:00N 59°55' E 010°44'3 6.3
2017-May-26 17:30N 59°52' E 010°39'3 6.5
2017-May-26 17:00N 59°55' E 010°44'3 6.4
2017-May-26 16:30N 59°52' E 010°39'3 6.4
2017-May-26 16:00N 59°55' E 010°44'3 6.4
2017-May-26 15:30N 59°52' E 010°39'3 6.5
2017-May-26 15:00N 59°55' E 010°44'1 0.7
2017-May-26 14:00N 59°54' E 010°43'1 1.8
2017-May-26 13:30N 59°54' E 010°41'1 1.5
2017-May-26 13:00N 59°54' E 010°43'1 1.8
2017-May-26 12:30N 59°55' E 010°44'3 6.4
2017-May-26 12:00N 59°52' E 010°39'3 6.4
2017-May-26 11:30N 59°55' E 010°44'3 6.4
2017-May-26 11:00N 59°52' E 010°39'3 6.3
2017-May-26 10:30N 59°55' E 010°44'0 0.0
2017-May-26 10:00N 59°55' E 010°44'1 1.2
2017-May-26 09:30N 59°54' E 010°43'0 0.0
2017-May-26 09:00N 59°54' E 010°43'1 1.2
2017-May-26 08:30N 59°55' E 010°44'3 6.5
2017-May-26 08:00N 59°52' E 010°39'3 6.4
2017-May-26 07:30N 59°55' E 010°44'3 6.4
2017-May-26 07:00N 59°52' E 010°39'3 6.4
2017-May-26 06:30N 59°55' E 010°44'3 6.3
2017-May-26 06:00N 59°52' E 010°39'3 6.4
2017-May-26 05:30N 59°55' E 010°44'3 6.4
2017-May-26 05:00N 59°52' E 010°39'3 6.2
2017-May-26 04:30N 59°55' E 010°44'3 6.6
2017-May-26 04:01N 59°52' E 010°39'3 6.3
2017-May-26 03:30N 59°55' E 010°44'3 6.5
2017-May-26 03:00N 59°52' E 010°39'0 0.0
2017-May-26 02:29N 59°52' E 010°39'0 0.0
2017-May-26 01:59N 59°52' E 010°39'0 0.0
2017-May-26 01:29N 59°52' E 010°39'0 0.0
2017-May-26 00:59N 59°52' E 010°39'0 0.0
2017-May-26 00:29N 59°52' E 010°39'0 0.0
2017-May-25 23:59N 59°52' E 010°39'2 4.9
2017-May-25 23:30N 59°54' E 010°43'2 4.8
2017-May-25 23:00N 59°52' E 010°39'3 6.2
2017-May-25 22:30N 59°55' E 010°44'3 6.5
2017-May-25 22:00N 59°52' E 010°39'3 6.4
2017-May-25 21:30N 59°55' E 010°44'3 6.5
2017-May-25 21:00N 59°52' E 010°39'3 6.4
2017-May-25 20:30N 59°55' E 010°44'3 6.3
2017-May-25 20:00N 59°52' E 010°39'3 6.5
2017-May-25 19:30N 59°55' E 010°44'3 6.5
2017-May-25 19:00N 59°52' E 010°39'3 6.3
2017-May-25 18:30N 59°55' E 010°44'3 6.5
2017-May-25 18:00N 59°52' E 010°39'3 6.3
2017-May-25 17:30N 59°55' E 010°44'3 6.3
2017-May-25 17:00N 59°52' E 010°39'3 6.5
2017-May-25 16:30N 59°55' E 010°44'3 6.3
2017-May-25 16:00N 59°52' E 010°39'3 6.5
2017-May-25 15:30N 59°55' E 010°44'3 6.4
2017-May-25 15:00N 59°52' E 010°39'0 0.0
2017-May-25 14:00N 59°52' E 010°39'3 6.2
2017-May-25 13:30N 59°55' E 010°44'3 6.6
2017-May-25 13:00N 59°52' E 010°39'3 6.4
2017-May-25 12:30N 59°55' E 010°44'3 6.4
2017-May-25 12:00N 59°52' E 010°39'3 6.2
2017-May-25 11:29N 59°55' E 010°44'3 6.6
2017-May-25 11:00N 59°52' E 010°39'3 6.2
2017-May-25 10:30N 59°55' E 010°44'3 6.6
2017-May-25 10:00N 59°52' E 010°39'3 6.3
2017-May-25 09:30N 59°55' E 010°44'3 6.5
2017-May-25 09:00N 59°52' E 010°39'3 6.4
2017-May-25 08:30N 59°55' E 010°44'3 6.4
2017-May-25 08:00N 59°52' E 010°39'3 6.2
2017-May-25 07:30N 59°55' E 010°44'3 6.5
2017-May-25 07:00N 59°52' E 010°39'3 6.3
2017-May-25 06:30N 59°55' E 010°44'3 6.5
2017-May-25 06:00N 59°52' E 010°39'3 6.3
2017-May-25 05:30N 59°55' E 010°44'3 6.5
2017-May-25 05:00N 59°52' E 010°39'3 6.4
2017-May-25 04:30N 59°55' E 010°44'3 6.4
2017-May-25 04:00N 59°52' E 010°39'0 0.0
2017-May-25 03:29N 59°52' E 010°39'0 0.0
2017-May-25 02:59N 59°52' E 010°39'0 0.0
2017-May-25 02:29N 59°52' E 010°39'0 0.0
2017-May-25 02:00N 59°52' E 010°39'3 6.4
2017-May-25 01:30N 59°55' E 010°44'3 6.3
2017-May-25 01:00N 59°52' E 010°39'3 6.4
2017-May-25 00:30N 59°55' E 010°44'3 6.5
2017-May-25 00:00N 59°52' E 010°39'3 6.5
2017-May-24 23:30N 59°55' E 010°44'0 0.0
2017-May-24 23:00N 59°55' E 010°44'3 5.9
2017-May-24 22:31N 59°52' E 010°40'3 5.9
2017-May-24 22:00N 59°55' E 010°44'3 6.4
2017-May-24 21:30N 59°52' E 010°39'3 6.4
2017-May-24 21:00N 59°55' E 010°44'3 6.5
2017-May-24 20:30N 59°52' E 010°39'3 6.3
2017-May-24 20:00N 59°55' E 010°44'3 6.5
2017-May-24 19:31N 59°52' E 010°39'3 6.2
2017-May-24 19:00N 59°55' E 010°44'3 6.5
2017-May-24 18:31N 59°52' E 010°39'3 6.2
2017-May-24 18:00N 59°55' E 010°44'3 6.6
2017-May-24 17:31N 59°52' E 010°39'3 6.3
2017-May-24 17:00N 59°55' E 010°44'3 6.4
2017-May-24 16:30N 59°52' E 010°39'3 6.3
2017-May-24 16:00N 59°55' E 010°44'3 6.6
2017-May-24 15:31N 59°52' E 010°39'3 6.2
2017-May-24 15:00N 59°55' E 010°44'2 3.5
2017-May-24 14:30N 59°53' E 010°41'0 0.2
2017-May-24 13:30N 59°54' E 010°41'1 1.3
2017-May-24 13:00N 59°54' E 010°43'1 1.8
2017-May-24 12:30N 59°55' E 010°44'3 6.4
2017-May-24 12:00N 59°52' E 010°39'3 6.2
2017-May-24 11:30N 59°55' E 010°44'3 6.4
2017-May-24 11:00N 59°52' E 010°39'3 6.4
2017-May-24 10:30N 59°55' E 010°44'0 0.0
2017-May-24 10:00N 59°55' E 010°44'0 0.0
2017-May-24 09:30N 59°55' E 010°44'0 0.0
2017-May-24 09:00N 59°55' E 010°44'0 0.0
2017-May-24 08:30N 59°55' E 010°44'3 6.3
2017-May-24 08:00N 59°52' E 010°39'3 6.3
2017-May-24 07:30N 59°55' E 010°44'3 6.5
2017-May-24 07:00N 59°52' E 010°39'3 6.4
2017-May-24 06:30N 59°55' E 010°44'3 6.4
2017-May-24 06:00N 59°52' E 010°39'3 6.4
2017-May-24 05:30N 59°55' E 010°44'3 6.4
2017-May-24 05:00N 59°52' E 010°39'3 6.3
2017-May-24 04:30N 59°55' E 010°44'3 6.3
2017-May-24 04:00N 59°52' E 010°39'3 6.4
2017-May-24 03:30N 59°55' E 010°44'3 6.4
2017-May-24 03:00N 59°52' E 010°39'0 0.0
2017-May-24 02:28N 59°52' E 010°39'0 0.0
2017-May-24 01:58N 59°52' E 010°39'0 0.0
2017-May-24 01:28N 59°52' E 010°39'0 0.0
2017-May-24 00:58N 59°52' E 010°39'0 0.0
2017-May-24 00:28N 59°52' E 010°39'0 0.0
2017-May-23 23:58N 59°52' E 010°39'0 0.0
2017-May-23 23:28N 59°52' E 010°39'0 0.0
2017-May-23 22:58N 59°52' E 010°39'0 0.0
2017-May-23 22:30N 59°52' E 010°39'3 6.3
2017-May-23 22:00N 59°55' E 010°44'3 6.5
2017-May-23 21:30N 59°52' E 010°39'3 6.3
2017-May-23 21:00N 59°55' E 010°44'3 6.5
2017-May-23 20:30N 59°52' E 010°39'3 6.4
2017-May-23 20:00N 59°55' E 010°44'3 6.5
2017-May-23 19:30N 59°52' E 010°39'3 6.2
2017-May-23 18:59N 59°55' E 010°44'3 6.6
2017-May-23 18:30N 59°52' E 010°39'3 6.4
2017-May-23 18:00N 59°55' E 010°44'3 6.4
2017-May-23 17:30N 59°52' E 010°39'3 6.2
2017-May-23 17:00N 59°55' E 010°44'3 6.5
2017-May-23 16:30N 59°52' E 010°39'3 6.3
2017-May-23 16:00N 59°55' E 010°44'3 6.5
2017-May-23 15:30N 59°52' E 010°39'3 6.3
2017-May-23 15:00N 59°55' E 010°44'2 3.5
2017-May-23 14:30N 59°54' E 010°41'0 0.0
2017-May-23 13:30N 59°53' E 010°41'1 1.5
2017-May-23 13:00N 59°54' E 010°42'1 1.9
2017-May-23 12:30N 59°55' E 010°44'3 6.4
2017-May-23 12:00N 59°52' E 010°39'3 6.3
2017-May-23 11:30N 59°55' E 010°44'3 6.4
2017-May-23 11:00N 59°52' E 010°39'3 6.4
2017-May-23 10:29N 59°55' E 010°44'1 1.3
2017-May-23 10:00N 59°54' E 010°43'0 0.0
2017-May-23 09:25N 59°54' E 010°43'0 0.0
2017-May-23 08:58N 59°54' E 010°43'1 1.1
2017-May-23 08:30N 59°54' E 010°44'3 6.0
2017-May-23 08:00N 59°52' E 010°39'3 6.4
2017-May-23 07:30N 59°55' E 010°44'3 6.3
2017-May-23 07:00N 59°52' E 010°39'3 6.5
2017-May-23 06:30N 59°55' E 010°44'3 6.4
2017-May-23 06:00N 59°52' E 010°39'3 6.5
2017-May-23 05:30N 59°55' E 010°44'3 6.3
2017-May-23 05:00N 59°52' E 010°39'3 6.4
2017-May-23 04:30N 59°55' E 010°44'3 6.4
2017-May-23 04:00N 59°52' E 010°39'3 6.2
2017-May-23 03:30N 59°55' E 010°44'3 6.4
2017-May-23 03:00N 59°52' E 010°39'0 0.0
2017-May-23 02:30N 59°52' E 010°39'0 0.0
2017-May-23 02:00N 59°52' E 010°39'0 0.0
2017-May-23 01:30N 59°52' E 010°39'0 0.0
2017-May-23 01:00N 59°52' E 010°39'0 0.0
2017-May-23 00:30N 59°52' E 010°39'0 0.0
2017-May-23 00:00N 59°52' E 010°39'0 0.0
2017-May-22 23:30N 59°52' E 010°39'0 0.0
2017-May-22 23:00N 59°52' E 010°39'0 0.0
2017-May-22 22:30N 59°52' E 010°39'3 6.5
2017-May-22 22:00N 59°55' E 010°44'3 6.3
2017-May-22 21:30N 59°52' E 010°39'3 6.5
2017-May-22 21:00N 59°55' E 010°44'3 6.2
2017-May-22 20:29N 59°52' E 010°39'3 6.7
2017-May-22 20:01N 59°55' E 010°44'3 6.2
2017-May-22 19:30N 59°52' E 010°39'3 6.5
2017-May-22 19:00N 59°55' E 010°44'3 6.4
2017-May-22 18:30N 59°52' E 010°39'3 6.3
2017-May-22 18:00N 59°55' E 010°44'3 6.4
2017-May-22 17:29N 59°52' E 010°39'3 6.5
2017-May-22 17:00N 59°55' E 010°44'3 6.3
2017-May-22 16:30N 59°52' E 010°39'3 6.5
2017-May-22 16:00N 59°55' E 010°44'3 6.4
2017-May-22 15:30N 59°52' E 010°39'3 6.4
2017-May-22 15:00N 59°55' E 010°44'1 0.8
2017-May-22 13:59N 59°54' E 010°43'1 1.9
2017-May-22 13:30N 59°54' E 010°41'1 1.8
2017-May-22 13:00N 59°54' E 010°43'1 1.7
2017-May-22 12:30N 59°55' E 010°44'3 6.5
2017-May-22 12:00N 59°52' E 010°39'3 6.5
2017-May-22 11:30N 59°55' E 010°44'3 6.3
2017-May-22 11:00N 59°52' E 010°39'3 6.4
2017-May-22 10:30N 59°55' E 010°44'0 0.0
2017-May-22 09:58N 59°55' E 010°44'0 0.0
2017-May-22 09:28N 59°55' E 010°44'0 0.0
2017-May-22 08:58N 59°55' E 010°44'0 0.0
2017-May-22 08:30N 59°55' E 010°44'3 6.4
2017-May-22 08:00N 59°52' E 010°39'3 6.4
2017-May-22 07:30N 59°55' E 010°44'3 6.3
2017-May-22 07:00N 59°52' E 010°39'3 6.5
2017-May-22 06:30N 59°55' E 010°44'3 6.3
2017-May-22 06:00N 59°52' E 010°39'3 6.5
2017-May-22 05:30N 59°55' E 010°44'3 6.4
2017-May-22 05:00N 59°52' E 010°39'3 6.4
2017-May-22 04:30N 59°55' E 010°44'3 6.4
2017-May-22 04:00N 59°52' E 010°39'3 6.4
2017-May-22 03:30N 59°55' E 010°44'3 6.4
2017-May-22 03:00N 59°52' E 010°39'0 0.0
2017-May-22 02:30N 59°52' E 010°39'0 0.0
2017-May-22 02:00N 59°52' E 010°39'0 0.0
2017-May-22 01:30N 59°52' E 010°39'0 0.0
2017-May-22 01:00N 59°52' E 010°39'0 0.0
2017-May-22 00:30N 59°52' E 010°39'0 0.0
2017-May-22 00:00N 59°52' E 010°39'2 4.6
2017-May-21 23:30N 59°54' E 010°42'2 4.7
2017-May-21 23:01N 59°52' E 010°39'3 6.3
2017-May-21 22:30N 59°55' E 010°44'3 6.4
2017-May-21 22:00N 59°52' E 010°39'3 6.5
2017-May-21 21:31N 59°55' E 010°44'3 6.4
2017-May-21 21:00N 59°52' E 010°39'3 6.4
2017-May-21 20:30N 59°55' E 010°44'3 6.4
2017-May-21 20:01N 59°52' E 010°39'3 6.2
2017-May-21 19:30N 59°55' E 010°44'3 6.6
2017-May-21 19:01N 59°52' E 010°39'3 6.2
2017-May-21 18:30N 59°55' E 010°44'3 6.6
2017-May-21 18:01N 59°52' E 010°39'3 6.3
2017-May-21 17:30N 59°55' E 010°44'3 6.5
2017-May-21 17:00N 59°52' E 010°39'3 6.3
2017-May-21 16:30N 59°55' E 010°44'3 6.5
2017-May-21 16:01N 59°52' E 010°39'3 6.3
2017-May-21 15:30N 59°55' E 010°44'3 6.5
2017-May-21 15:00N 59°52' E 010°39'0 0.0
2017-May-21 14:01N 59°52' E 010°39'3 6.4
2017-May-21 13:30N 59°55' E 010°44'3 6.4
2017-May-21 13:01N 59°52' E 010°39'3 6.4
2017-May-21 12:30N 59°55' E 010°44'3 6.4
2017-May-21 12:00N 59°52' E 010°39'3 6.3
2017-May-21 11:30N 59°55' E 010°44'3 6.6
2017-May-21 11:01N 59°52' E 010°39'3 6.3
2017-May-21 10:30N 59°55' E 010°44'3 6.5
2017-May-21 10:01N 59°52' E 010°39'3 6.4
2017-May-21 09:30N 59°55' E 010°44'3 6.4
2017-May-21 09:00N 59°52' E 010°39'3 6.4
2017-May-21 08:30N 59°55' E 010°44'3 6.4
2017-May-21 08:00N 59°52' E 010°39'3 6.4
2017-May-21 07:30N 59°55' E 010°44'3 6.4
2017-May-21 07:00N 59°52' E 010°39'3 6.4
2017-May-21 06:31N 59°55' E 010°44'3 6.4
2017-May-21 06:01N 59°52' E 010°39'3 6.3
2017-May-21 05:30N 59°55' E 010°44'3 6.5
2017-May-21 05:00N 59°52' E 010°39'3 6.3
2017-May-21 04:30N 59°55' E 010°44'3 6.5
2017-May-21 04:00N 59°52' E 010°39'0 0.0
2017-May-21 03:30N 59°52' E 010°39'0 0.0
2017-May-21 03:00N 59°52' E 010°39'0 0.0
2017-May-21 02:30N 59°52' E 010°39'0 0.0
2017-May-21 02:00N 59°52' E 010°39'3 6.2
2017-May-21 01:29N 59°55' E 010°44'3 6.6
2017-May-21 01:00N 59°52' E 010°39'3 6.3
2017-May-21 00:30N 59°55' E 010°44'3 6.5
2017-May-21 00:00N 59°52' E 010°39'3 6.3
2017-May-20 23:30N 59°55' E 010°44'3 6.5
2017-May-20 23:00N 59°52' E 010°39'3 6.4
2017-May-20 22:30N 59°55' E 010°44'3 6.4
2017-May-20 22:00N 59°52' E 010°39'3 6.4
2017-May-20 21:30N 59°55' E 010°44'3 6.3
2017-May-20 21:00N 59°52' E 010°39'3 6.3
2017-May-20 20:29N 59°55' E 010°44'3 6.6
2017-May-20 20:00N 59°52' E 010°39'3 6.3
2017-May-20 19:30N 59°55' E 010°44'3 6.5
2017-May-20 19:00N 59°52' E 010°39'3 6.2
2017-May-20 18:30N 59°55' E 010°44'3 6.6
2017-May-20 18:00N 59°52' E 010°39'3 6.3
2017-May-20 17:30N 59°55' E 010°44'3 6.5
2017-May-20 17:00N 59°52' E 010°39'3 6.4
2017-May-20 16:30N 59°55' E 010°44'3 6.3
2017-May-20 16:00N 59°52' E 010°39'3 6.5
2017-May-20 15:30N 59°55' E 010°44'3 6.4
2017-May-20 15:00N 59°52' E 010°39'3 6.3
2017-May-20 14:30N 59°55' E 010°44'0 0.0
2017-May-20 13:29N 59°55' E 010°44'3 6.5
2017-May-20 13:00N 59°52' E 010°39'3 6.5
2017-May-20 12:30N 59°55' E 010°44'3 6.3
2017-May-20 12:00N 59°52' E 010°39'3 6.3
2017-May-20 11:30N 59°55' E 010°44'3 6.5
2017-May-20 11:00N 59°52' E 010°39'3 6.3
2017-May-20 10:30N 59°55' E 010°44'3 6.6
2017-May-20 10:01N 59°52' E 010°39'3 6.4
2017-May-20 09:30N 59°55' E 010°44'3 6.4
2017-May-20 09:00N 59°52' E 010°39'3 6.3
2017-May-20 08:30N 59°55' E 010°44'3 6.4
2017-May-20 08:00N 59°52' E 010°39'3 6.4
2017-May-20 07:30N 59°55' E 010°44'3 6.5
2017-May-20 07:00N 59°52' E 010°39'3 6.2
2017-May-20 06:30N 59°55' E 010°44'3 6.5
2017-May-20 06:00N 59°52' E 010°39'3 6.3
2017-May-20 05:30N 59°55' E 010°44'3 6.5
2017-May-20 05:00N 59°52' E 010°39'3 6.4
2017-May-20 04:30N 59°55' E 010°44'3 6.4
2017-May-20 04:00N 59°52' E 010°39'0 0.0
2017-May-20 03:29N 59°52' E 010°39'0 0.0
2017-May-20 02:59N 59°52' E 010°39'0 0.0
2017-May-20 02:29N 59°52' E 010°39'0 0.0
2017-May-20 01:59N 59°52' E 010°39'3 6.6
2017-May-20 01:30N 59°55' E 010°44'3 6.6
2017-May-20 01:00N 59°52' E 010°39'3 6.3
2017-May-20 00:30N 59°55' E 010°44'3 6.5
2017-May-20 00:00N 59°52' E 010°39'3 6.3
2017-May-19 23:30N 59°55' E 010°44'0 0.0
2017-May-19 23:00N 59°55' E 010°44'3 6.6
2017-May-19 22:31N 59°52' E 010°39'3 6.2
2017-May-19 22:00N 59°55' E 010°44'3 6.5
2017-May-19 21:30N 59°52' E 010°39'3 6.4
2017-May-19 21:00N 59°55' E 010°44'3 6.4
2017-May-19 20:30N 59°52' E 010°39'3 6.4
2017-May-19 20:00N 59°55' E 010°44'3 6.5
2017-May-19 19:31N 59°52' E 010°39'3 6.2
2017-May-19 19:00N 59°55' E 010°44'3 6.5
2017-May-19 18:30N 59°52' E 010°39'3 6.4
2017-May-19 18:00N 59°55' E 010°44'3 6.4
2017-May-19 17:30N 59°52' E 010°39'3 6.4
2017-May-19 17:00N 59°55' E 010°44'3 6.4
2017-May-19 16:30N 59°52' E 010°39'3 6.2
2017-May-19 16:00N 59°55' E 010°44'3 6.5
2017-May-19 15:30N 59°52' E 010°39'3 6.4
2017-May-19 15:00N 59°55' E 010°44'1 0.9
2017-May-19 14:00N 59°54' E 010°42'1 1.6
2017-May-19 13:30N 59°54' E 010°41'1 1.8
2017-May-19 13:00N 59°54' E 010°43'1 1.6
2017-May-19 12:30N 59°55' E 010°44'3 6.5
2017-May-19 12:00N 59°52' E 010°39'3 6.4
2017-May-19 11:30N 59°55' E 010°44'3 6.4
2017-May-19 11:00N 59°52' E 010°39'3 6.3
2017-May-19 10:30N 59°55' E 010°44'1 1.2
2017-May-19 09:58N 59°54' E 010°43'0 0.0
2017-May-19 09:28N 59°54' E 010°43'0 0.0
2017-May-19 08:58N 59°54' E 010°43'0 0.9
2017-May-19 08:30N 59°54' E 010°43'3 5.7
2017-May-19 08:00N 59°52' E 010°39'3 6.4
2017-May-19 07:31N 59°55' E 010°44'3 6.4
2017-May-19 07:00N 59°52' E 010°39'3 6.2
2017-May-19 06:30N 59°55' E 010°44'3 6.6
2017-May-19 06:00N 59°52' E 010°39'3 6.4
2017-May-19 05:30N 59°55' E 010°44'3 6.4
2017-May-19 05:00N 59°52' E 010°39'3 6.1
2017-May-19 04:29N 59°55' E 010°44'3 6.6
2017-May-19 04:01N 59°52' E 010°39'3 6.2
2017-May-19 03:30N 59°55' E 010°44'3 6.5
2017-May-19 03:00N 59°52' E 010°39'0 0.0
2017-May-19 02:30N 59°52' E 010°39'0 0.0
2017-May-19 02:00N 59°52' E 010°39'0 0.0
2017-May-19 01:30N 59°52' E 010°39'0 0.0
2017-May-19 01:00N 59°52' E 010°39'0 0.0
2017-May-19 00:30N 59°52' E 010°39'0 0.0
2017-May-19 00:00N 59°52' E 010°39'0 0.0
2017-May-18 23:30N 59°52' E 010°39'0 0.0
2017-May-18 23:00N 59°52' E 010°39'0 0.0
2017-May-18 22:31N 59°52' E 010°39'3 6.3
2017-May-18 22:00N 59°55' E 010°44'3 6.4
2017-May-18 21:30N 59°52' E 010°39'3 6.4
2017-May-18 21:00N 59°55' E 010°44'3 6.4
2017-May-18 20:30N 59°52' E 010°39'3 6.4
2017-May-18 20:00N 59°55' E 010°44'3 6.5
2017-May-18 19:31N 59°52' E 010°39'3 6.4
2017-May-18 19:01N 59°55' E 010°44'3 6.4
2017-May-18 18:30N 59°52' E 010°39'3 6.2
2017-May-18 18:00N 59°55' E 010°44'3 6.5
2017-May-18 17:30N 59°52' E 010°39'3 6.2
2017-May-18 16:59N 59°55' E 010°44'3 6.6
2017-May-18 16:30N 59°52' E 010°39'3 6.4
2017-May-18 16:00N 59°55' E 010°44'3 6.4
2017-May-18 15:30N 59°52' E 010°39'3 6.2
2017-May-18 15:00N 59°55' E 010°44'2 3.6
2017-May-18 14:30N 59°53' E 010°41'0 0.1
2017-May-18 13:30N 59°54' E 010°41'1 1.5
2017-May-18 13:00N 59°54' E 010°42'1 2.0
2017-May-18 12:31N 59°55' E 010°44'3 6.3
2017-May-18 12:01N 59°52' E 010°39'3 6.3
2017-May-18 11:30N 59°55' E 010°44'3 6.4
2017-May-18 11:01N 59°52' E 010°39'3 6.3
2017-May-18 10:30N 59°55' E 010°44'0 0.0
2017-May-18 09:58N 59°55' E 010°44'0 0.0
2017-May-18 09:28N 59°55' E 010°44'0 0.0
2017-May-18 08:58N 59°55' E 010°44'0 0.0
2017-May-18 08:30N 59°55' E 010°44'3 6.4
2017-May-18 08:00N 59°52' E 010°39'3 6.2
2017-May-18 07:30N 59°55' E 010°44'3 6.5
2017-May-18 07:00N 59°52' E 010°39'3 6.4
2017-May-18 06:30N 59°55' E 010°44'3 6.4
2017-May-18 06:00N 59°52' E 010°39'3 6.2
2017-May-18 05:30N 59°55' E 010°44'3 6.6
2017-May-18 05:00N 59°52' E 010°39'3 6.2
2017-May-18 04:30N 59°55' E 010°44'3 6.5
2017-May-18 04:00N 59°52' E 010°39'3 6.3
2017-May-18 03:30N 59°55' E 010°44'3 6.4
2017-May-18 03:00N 59°52' E 010°39'0 0.0
2017-May-18 02:30N 59°52' E 010°39'0 0.0
2017-May-18 01:58N 59°52' E 010°39'0 0.0
2017-May-18 01:28N 59°52' E 010°39'0 0.0
2017-May-18 00:58N 59°52' E 010°39'0 0.0
2017-May-18 00:28N 59°52' E 010°39'0 0.0
2017-May-17 23:58N 59°52' E 010°39'3 5.5
2017-May-17 23:30N 59°54' E 010°43'3 5.2
2017-May-17 23:00N 59°52' E 010°39'3 6.3
2017-May-17 22:30N 59°55' E 010°44'3 6.4
2017-May-17 22:00N 59°52' E 010°39'3 6.3
2017-May-17 21:30N 59°55' E 010°44'3 6.4
2017-May-17 21:00N 59°52' E 010°39'3 6.2
2017-May-17 20:30N 59°55' E 010°44'3 6.5
2017-May-17 20:00N 59°52' E 010°39'3 6.4
2017-May-17 19:30N 59°55' E 010°44'3 6.3
2017-May-17 19:00N 59°52' E 010°39'3 6.4
2017-May-17 18:30N 59°55' E 010°44'3 6.4
2017-May-17 18:00N 59°52' E 010°39'3 6.3
2017-May-17 17:30N 59°55' E 010°44'3 6.5
2017-May-17 17:00N 59°52' E 010°39'3 6.3
2017-May-17 16:30N 59°55' E 010°44'3 6.4
2017-May-17 16:00N 59°52' E 010°39'3 6.4
2017-May-17 15:30N 59°55' E 010°44'3 6.4
2017-May-17 15:00N 59°52' E 010°39'0 0.0
2017-May-17 14:00N 59°52' E 010°39'3 6.1
2017-May-17 13:29N 59°55' E 010°44'3 6.7
2017-May-17 13:00N 59°52' E 010°39'3 6.3
2017-May-17 12:30N 59°55' E 010°44'3 6.4
2017-May-17 12:00N 59°52' E 010°39'3 6.3
2017-May-17 11:30N 59°55' E 010°44'3 6.5
2017-May-17 11:00N 59°52' E 010°39'3 6.3
2017-May-17 10:30N 59°55' E 010°44'3 6.5
2017-May-17 10:00N 59°52' E 010°39'3 6.4
2017-May-17 09:30N 59°55' E 010°44'3 6.4
2017-May-17 09:00N 59°52' E 010°39'0 0.8
2017-May-17 08:26N 59°53' E 010°40'0 1.1
2017-May-17 08:00N 59°52' E 010°39'3 6.4
2017-May-17 07:30N 59°55' E 010°44'3 6.5
2017-May-17 07:00N 59°52' E 010°39'3 6.3
2017-May-17 06:30N 59°55' E 010°44'3 6.4
2017-May-17 06:00N 59°52' E 010°39'3 6.4
2017-May-17 05:30N 59°55' E 010°44'3 6.3
2017-May-17 05:00N 59°52' E 010°39'3 6.3
2017-May-17 04:30N 59°55' E 010°44'3 6.5
2017-May-17 04:00N 59°52' E 010°39'  
Track history (hours):
 
Tides and Currents Weather Stations Pressure Air Temp Water Temp Dewpoint Dewpoint Depression Visibility Wind Speed Wind Dir Waves Ship Positions

Kongen

Last reported at 2017-May-27 04:00 UTC. Time now 2017-May-27 04:06 UTC.
Position N 59°52' E 010°39'.

Length 50 m; draft 3.2 m.

Type: Passenger vessel. MMSI: 258509000.

Date/timePositionNaut miles runAvg speedWind from/ knotsBaromVisibWave heightAir tempDewpointWater temp
2017-May-27 04:00N 59°52' E 010°39'0 0.0
2017-May-27 03:28N 59°52' E 010°39'0 0.0
2017-May-27 02:58N 59°52' E 010°39'0 0.0
2017-May-27 02:28N 59°52' E 010°39'0 0.0
2017-May-27 01:59N 59°52' E 010°39'3 6.5
2017-May-27 01:30N 59°55' E 010°44'3 6.5
2017-May-27 01:00N 59°52' E 010°39'3 6.4
2017-May-27 00:30N 59°55' E 010°44'3 6.4
2017-May-27 00:00N 59°52' E 010°39'3 6.2
2017-May-26 23:29N 59°55' E 010°44'0 0.0
2017-May-26 23:00N 59°55' E 010°44'3 5.8
2017-May-26 22:30N 59°53' E 010°40'3 5.8
2017-May-26 22:00N 59°55' E 010°44'3 6.4
2017-May-26 21:30N 59°52' E 010°39'3 6.4
2017-May-26 21:00N 59°55' E 010°44'3 6.4
2017-May-26 20:30N 59°52' E 010°39'3 6.4
2017-May-26 20:00N 59°55' E 010°44'3 6.4
2017-May-26 19:30N 59°52' E 010°39'3 6.3
2017-May-26 18:59N 59°55' E 010°44'3 6.6
2017-May-26 18:30N 59°52' E 010°39'3 6.3
2017-May-26 18:00N 59°55' E 010°44'3 6.3
2017-May-26 17:30N 59°52' E 010°39'3 6.5
2017-May-26 17:00N 59°55' E 010°44'3 6.4
2017-May-26 16:30N 59°52' E 010°39'3 6.4
2017-May-26 16:00N 59°55' E 010°44'3 6.4
2017-May-26 15:30N 59°52' E 010°39'3 6.5
2017-May-26 15:00N 59°55' E 010°44'1 0.7
2017-May-26 14:00N 59°54' E 010°43'1 1.8
2017-May-26 13:30N 59°54' E 010°41'1 1.5
2017-May-26 13:00N 59°54' E 010°43'1 1.8
2017-May-26 12:30N 59°55' E 010°44'3 6.4
2017-May-26 12:00N 59°52' E 010°39'3 6.4
2017-May-26 11:30N 59°55' E 010°44'3 6.4
2017-May-26 11:00N 59°52' E 010°39'3 6.3
2017-May-26 10:30N 59°55' E 010°44'0 0.0
2017-May-26 10:00N 59°55' E 010°44'1 1.2
2017-May-26 09:30N 59°54' E 010°43'0 0.0
2017-May-26 09:00N 59°54' E 010°43'1 1.2
2017-May-26 08:30N 59°55' E 010°44'3 6.5
2017-May-26 08:00N 59°52' E 010°39'3 6.4
2017-May-26 07:30N 59°55' E 010°44'3 6.4
2017-May-26 07:00N 59°52' E 010°39'3 6.4
2017-May-26 06:30N 59°55' E 010°44'3 6.3
2017-May-26 06:00N 59°52' E 010°39'3 6.4
2017-May-26 05:30N 59°55' E 010°44'3 6.4
2017-May-26 05:00N 59°52' E 010°39'3 6.2
2017-May-26 04:30N 59°55' E 010°44'3 6.6
2017-May-26 04:01N 59°52' E 010°39'3 6.3
2017-May-26 03:30N 59°55' E 010°44'3 6.5
2017-May-26 03:00N 59°52' E 010°39'0 0.0
2017-May-26 02:29N 59°52' E 010°39'0 0.0
2017-May-26 01:59N 59°52' E 010°39'0 0.0
2017-May-26 01:29N 59°52' E 010°39'0 0.0
2017-May-26 00:59N 59°52' E 010°39'0 0.0
2017-May-26 00:29N 59°52' E 010°39'0 0.0
2017-May-25 23:59N 59°52' E 010°39'2 4.9
2017-May-25 23:30N 59°54' E 010°43'2 4.8
2017-May-25 23:00N 59°52' E 010°39'3 6.2
2017-May-25 22:30N 59°55' E 010°44'3 6.5
2017-May-25 22:00N 59°52' E 010°39'3 6.4
2017-May-25 21:30N 59°55' E 010°44'3 6.5
2017-May-25 21:00N 59°52' E 010°39'3 6.4
2017-May-25 20:30N 59°55' E 010°44'3 6.3
2017-May-25 20:00N 59°52' E 010°39'3 6.5
2017-May-25 19:30N 59°55' E 010°44'3 6.5
2017-May-25 19:00N 59°52' E 010°39'3 6.3
2017-May-25 18:30N 59°55' E 010°44'3 6.5
2017-May-25 18:00N 59°52' E 010°39'3 6.3
2017-May-25 17:30N 59°55' E 010°44'3 6.3
2017-May-25 17:00N 59°52' E 010°39'3 6.5
2017-May-25 16:30N 59°55' E 010°44'3 6.3
2017-May-25 16:00N 59°52' E 010°39'3 6.5
2017-May-25 15:30N 59°55' E 010°44'3 6.4
2017-May-25 15:00N 59°52' E 010°39'0 0.0
2017-May-25 14:00N 59°52' E 010°39'3 6.2
2017-May-25 13:30N 59°55' E 010°44'3 6.6
2017-May-25 13:00N 59°52' E 010°39'3 6.4
2017-May-25 12:30N 59°55' E 010°44'3 6.4
2017-May-25 12:00N 59°52' E 010°39'3 6.2
2017-May-25 11:29N 59°55' E 010°44'3 6.6
2017-May-25 11:00N 59°52' E 010°39'3 6.2
2017-May-25 10:30N 59°55' E 010°44'3 6.6
2017-May-25 10:00N 59°52' E 010°39'3 6.3
2017-May-25 09:30N 59°55' E 010°44'3 6.5
2017-May-25 09:00N 59°52' E 010°39'3 6.4
2017-May-25 08:30N 59°55' E 010°44'3 6.4
2017-May-25 08:00N 59°52' E 010°39'3 6.2
2017-May-25 07:30N 59°55' E 010°44'3 6.5
2017-May-25 07:00N 59°52' E 010°39'3 6.3
2017-May-25 06:30N 59°55' E 010°44'3 6.5
2017-May-25 06:00N 59°52' E 010°39'3 6.3
2017-May-25 05:30N 59°55' E 010°44'3 6.5
2017-May-25 05:00N 59°52' E 010°39'3 6.4
2017-May-25 04:30N 59°55' E 010°44'3 6.4
2017-May-25 04:00N 59°52' E 010°39'0 0.0
2017-May-25 03:29N 59°52' E 010°39'0 0.0
2017-May-25 02:59N 59°52' E 010°39'0 0.0
2017-May-25 02:29N 59°52' E 010°39'0 0.0
2017-May-25 02:00N 59°52' E 010°39'3 6.4
2017-May-25 01:30N 59°55' E 010°44'3 6.3
2017-May-25 01:00N 59°52' E 010°39'3 6.4
2017-May-25 00:30N 59°55' E 010°44'3 6.5
2017-May-25 00:00N 59°52' E 010°39'3 6.5
2017-May-24 23:30N 59°55' E 010°44'0 0.0
2017-May-24 23:00N 59°55' E 010°44'3 5.9
2017-May-24 22:31N 59°52' E 010°40'3 5.9
2017-May-24 22:00N 59°55' E 010°44'3 6.4
2017-May-24 21:30N 59°52' E 010°39'3 6.4
2017-May-24 21:00N 59°55' E 010°44'3 6.5
2017-May-24 20:30N 59°52' E 010°39'3 6.3
2017-May-24 20:00N 59°55' E 010°44'3 6.5
2017-May-24 19:31N 59°52' E 010°39'3 6.2
2017-May-24 19:00N 59°55' E 010°44'3 6.5
2017-May-24 18:31N 59°52' E 010°39'3 6.2
2017-May-24 18:00N 59°55' E 010°44'3 6.6
2017-May-24 17:31N 59°52' E 010°39'3 6.3
2017-May-24 17:00N 59°55' E 010°44'3 6.4
2017-May-24 16:30N 59°52' E 010°39'3 6.3
2017-May-24 16:00N 59°55' E 010°44'3 6.6
2017-May-24 15:31N 59°52' E 010°39'3 6.2
2017-May-24 15:00N 59°55' E 010°44'2 3.5
2017-May-24 14:30N 59°53' E 010°41'0 0.2
2017-May-24 13:30N 59°54' E 010°41'1 1.3
2017-May-24 13:00N 59°54' E 010°43'1 1.8
2017-May-24 12:30N 59°55' E 010°44'3 6.4
2017-May-24 12:00N 59°52' E 010°39'3 6.2
2017-May-24 11:30N 59°55' E 010°44'3 6.4
2017-May-24 11:00N 59°52' E 010°39'3 6.4
2017-May-24 10:30N 59°55' E 010°44'0 0.0
2017-May-24 10:00N 59°55' E 010°44'0 0.0
2017-May-24 09:30N 59°55' E 010°44'0 0.0
2017-May-24 09:00N 59°55' E 010°44'0 0.0
2017-May-24 08:30N 59°55' E 010°44'3 6.3
2017-May-24 08:00N 59°52' E 010°39'3 6.3
2017-May-24 07:30N 59°55' E 010°44'3 6.5
2017-May-24 07:00N 59°52' E 010°39'3 6.4
2017-May-24 06:30N 59°55' E 010°44'3 6.4
2017-May-24 06:00N 59°52' E 010°39'3 6.4
2017-May-24 05:30N 59°55' E 010°44'3 6.4
2017-May-24 05:00N 59°52' E 010°39'3 6.3
2017-May-24 04:30N 59°55' E 010°44'3 6.3
2017-May-24 04:00N 59°52' E 010°39'3 6.4
2017-May-24 03:30N 59°55' E 010°44'3 6.4
2017-May-24 03:00N 59°52' E 010°39'0 0.0
2017-May-24 02:28N 59°52' E 010°39'0 0.0
2017-May-24 01:58N 59°52' E 010°39'0 0.0
2017-May-24 01:28N 59°52' E 010°39'0 0.0
2017-May-24 00:58N 59°52' E 010°39'0 0.0
2017-May-24 00:28N 59°52' E 010°39'0 0.0
2017-May-23 23:58N 59°52' E 010°39'0 0.0
2017-May-23 23:28N 59°52' E 010°39'0 0.0
2017-May-23 22:58N 59°52' E 010°39'0 0.0
2017-May-23 22:30N 59°52' E 010°39'3 6.3
2017-May-23 22:00N 59°55' E 010°44'3 6.5
2017-May-23 21:30N 59°52' E 010°39'3 6.3
2017-May-23 21:00N 59°55' E 010°44'3 6.5
2017-May-23 20:30N 59°52' E 010°39'3 6.4
2017-May-23 20:00N 59°55' E 010°44'3 6.5
2017-May-23 19:30N 59°52' E 010°39'3 6.2
2017-May-23 18:59N 59°55' E 010°44'3 6.6
2017-May-23 18:30N 59°52' E 010°39'3 6.4
2017-May-23 18:00N 59°55' E 010°44'3 6.4
2017-May-23 17:30N 59°52' E 010°39'3 6.2
2017-May-23 17:00N 59°55' E 010°44'3 6.5
2017-May-23 16:30N 59°52' E 010°39'3 6.3
2017-May-23 16:00N 59°55' E 010°44'3 6.5
2017-May-23 15:30N 59°52' E 010°39'3 6.3
2017-May-23 15:00N 59°55' E 010°44'2 3.5
2017-May-23 14:30N 59°54' E 010°41'0 0.0
2017-May-23 13:30N 59°53' E 010°41'1 1.5
2017-May-23 13:00N 59°54' E 010°42'1 1.9
2017-May-23 12:30N 59°55' E 010°44'3 6.4
2017-May-23 12:00N 59°52' E 010°39'3 6.3
2017-May-23 11:30N 59°55' E 010°44'3 6.4
2017-May-23 11:00N 59°52' E 010°39'3 6.4
2017-May-23 10:29N 59°55' E 010°44'1 1.3
2017-May-23 10:00N 59°54' E 010°43'0 0.0
2017-May-23 09:25N 59°54' E 010°43'0 0.0
2017-May-23 08:58N 59°54' E 010°43'1 1.1
2017-May-23 08:30N 59°54' E 010°44'3 6.0
2017-May-23 08:00N 59°52' E 010°39'3 6.4
2017-May-23 07:30N 59°55' E 010°44'3 6.3
2017-May-23 07:00N 59°52' E 010°39'3 6.5
2017-May-23 06:30N 59°55' E 010°44'3 6.4
2017-May-23 06:00N 59°52' E 010°39'3 6.5
2017-May-23 05:30N 59°55' E 010°44'3 6.3
2017-May-23 05:00N 59°52' E 010°39'3 6.4
2017-May-23 04:30N 59°55' E 010°44'3 6.4
2017-May-23 04:00N 59°52' E 010°39'3 6.2
2017-May-23 03:30N 59°55' E 010°44'3 6.4
2017-May-23 03:00N 59°52' E 010°39'0 0.0
2017-May-23 02:30N 59°52' E 010°39'0 0.0
2017-May-23 02:00N 59°52' E 010°39'0 0.0
2017-May-23 01:30N 59°52' E 010°39'0 0.0
2017-May-23 01:00N 59°52' E 010°39'0 0.0
2017-May-23 00:30N 59°52' E 010°39'0 0.0
2017-May-23 00:00N 59°52' E 010°39'0 0.0
2017-May-22 23:30N 59°52' E 010°39'0 0.0
2017-May-22 23:00N 59°52' E 010°39'0 0.0
2017-May-22 22:30N 59°52' E 010°39'3 6.5
2017-May-22 22:00N 59°55' E 010°44'3 6.3
2017-May-22 21:30N 59°52' E 010°39'3 6.5
2017-May-22 21:00N 59°55' E 010°44'3 6.2
2017-May-22 20:29N 59°52' E 010°39'3 6.7
2017-May-22 20:01N 59°55' E 010°44'3 6.2
2017-May-22 19:30N 59°52' E 010°39'3 6.5
2017-May-22 19:00N 59°55' E 010°44'3 6.4
2017-May-22 18:30N 59°52' E 010°39'3 6.3
2017-May-22 18:00N 59°55' E 010°44'3 6.4
2017-May-22 17:29N 59°52' E 010°39'3 6.5
2017-May-22 17:00N 59°55' E 010°44'3 6.3
2017-May-22 16:30N 59°52' E 010°39'3 6.5
2017-May-22 16:00N 59°55' E 010°44'3 6.4
2017-May-22 15:30N 59°52' E 010°39'3 6.4
2017-May-22 15:00N 59°55' E 010°44'1 0.8
2017-May-22 13:59N 59°54' E 010°43'1 1.9
2017-May-22 13:30N 59°54' E 010°41'1 1.8
2017-May-22 13:00N 59°54' E 010°43'1 1.7
2017-May-22 12:30N 59°55' E 010°44'3 6.5
2017-May-22 12:00N 59°52' E 010°39'3 6.5
2017-May-22 11:30N 59°55' E 010°44'3 6.3
2017-May-22 11:00N 59°52' E 010°39'3 6.4
2017-May-22 10:30N 59°55' E 010°44'0 0.0
2017-May-22 09:58N 59°55' E 010°44'0 0.0
2017-May-22 09:28N 59°55' E 010°44'0 0.0
2017-May-22 08:58N 59°55' E 010°44'0 0.0
2017-May-22 08:30N 59°55' E 010°44'3 6.4
2017-May-22 08:00N 59°52' E 010°39'3 6.4
2017-May-22 07:30N 59°55' E 010°44'3 6.3
2017-May-22 07:00N 59°52' E 010°39'3 6.5
2017-May-22 06:30N 59°55' E 010°44'3 6.3
2017-May-22 06:00N 59°52' E 010°39'3 6.5
2017-May-22 05:30N 59°55' E 010°44'3 6.4
2017-May-22 05:00N 59°52' E 010°39'3 6.4
2017-May-22 04:30N 59°55' E 010°44'3 6.4
2017-May-22 04:00N 59°52' E 010°39'3 6.4
2017-May-22 03:30N 59°55' E 010°44'3 6.4
2017-May-22 03:00N 59°52' E 010°39'0 0.0
2017-May-22 02:30N 59°52' E 010°39'0 0.0
2017-May-22 02:00N 59°52' E 010°39'0 0.0
2017-May-22 01:30N 59°52' E 010°39'0 0.0
2017-May-22 01:00N 59°52' E 010°39'0 0.0
2017-May-22 00:30N 59°52' E 010°39'0 0.0
2017-May-22 00:00N 59°52' E 010°39'2 4.6
2017-May-21 23:30N 59°54' E 010°42'2 4.7
2017-May-21 23:01N 59°52' E 010°39'3 6.3
2017-May-21 22:30N 59°55' E 010°44'3 6.4
2017-May-21 22:00N 59°52' E 010°39'3 6.5
2017-May-21 21:31N 59°55' E 010°44'3 6.4
2017-May-21 21:00N 59°52' E 010°39'3 6.4
2017-May-21 20:30N 59°55' E 010°44'3 6.4
2017-May-21 20:01N 59°52' E 010°39'3 6.2
2017-May-21 19:30N 59°55' E 010°44'3 6.6
2017-May-21 19:01N 59°52' E 010°39'3 6.2
2017-May-21 18:30N 59°55' E 010°44'3 6.6
2017-May-21 18:01N 59°52' E 010°39'3 6.3
2017-May-21 17:30N 59°55' E 010°44'3 6.5
2017-May-21 17:00N 59°52' E 010°39'3 6.3
2017-May-21 16:30N 59°55' E 010°44'3 6.5
2017-May-21 16:01N 59°52' E 010°39'3 6.3
2017-May-21 15:30N 59°55' E 010°44'3 6.5
2017-May-21 15:00N 59°52' E 010°39'0 0.0
2017-May-21 14:01N 59°52' E 010°39'3 6.4
2017-May-21 13:30N 59°55' E 010°44'3 6.4
2017-May-21 13:01N 59°52' E 010°39'3 6.4
2017-May-21 12:30N 59°55' E 010°44'3 6.4
2017-May-21 12:00N 59°52' E 010°39'3 6.3
2017-May-21 11:30N 59°55' E 010°44'3 6.6
2017-May-21 11:01N 59°52' E 010°39'3 6.3
2017-May-21 10:30N 59°55' E 010°44'3 6.5
2017-May-21 10:01N 59°52' E 010°39'3 6.4
2017-May-21 09:30N 59°55' E 010°44'3 6.4
2017-May-21 09:00N 59°52' E 010°39'3 6.4
2017-May-21 08:30N 59°55' E 010°44'3 6.4
2017-May-21 08:00N 59°52' E 010°39'3 6.4
2017-May-21 07:30N 59°55' E 010°44'3 6.4
2017-May-21 07:00N 59°52' E 010°39'3 6.4
2017-May-21 06:31N 59°55' E 010°44'3 6.4
2017-May-21 06:01N 59°52' E 010°39'3 6.3
2017-May-21 05:30N 59°55' E 010°44'3 6.5
2017-May-21 05:00N 59°52' E 010°39'3 6.3
2017-May-21 04:30N 59°55' E 010°44'3 6.5
2017-May-21 04:00N 59°52' E 010°39'0 0.0
2017-May-21 03:30N 59°52' E 010°39'0 0.0
2017-May-21 03:00N 59°52' E 010°39'0 0.0
2017-May-21 02:30N 59°52' E 010°39'0 0.0
2017-May-21 02:00N 59°52' E 010°39'3 6.2
2017-May-21 01:29N 59°55' E 010°44'3 6.6
2017-May-21 01:00N 59°52' E 010°39'3 6.3
2017-May-21 00:30N 59°55' E 010°44'3 6.5
2017-May-21 00:00N 59°52' E 010°39'3 6.3
2017-May-20 23:30N 59°55' E 010°44'3 6.5
2017-May-20 23:00N 59°52' E 010°39'3 6.4
2017-May-20 22:30N 59°55' E 010°44'3 6.4
2017-May-20 22:00N 59°52' E 010°39'3 6.4
2017-May-20 21:30N 59°55' E 010°44'3 6.3
2017-May-20 21:00N 59°52' E 010°39'3 6.3
2017-May-20 20:29N 59°55' E 010°44'3 6.6
2017-May-20 20:00N 59°52' E 010°39'3 6.3
2017-May-20 19:30N 59°55' E 010°44'3 6.5
2017-May-20 19:00N 59°52' E 010°39'3 6.2
2017-May-20 18:30N 59°55' E 010°44'3 6.6
2017-May-20 18:00N 59°52' E 010°39'3 6.3
2017-May-20 17:30N 59°55' E 010°44'3 6.5
2017-May-20 17:00N 59°52' E 010°39'3 6.4
2017-May-20 16:30N 59°55' E 010°44'3 6.3
2017-May-20 16:00N 59°52' E 010°39'3 6.5
2017-May-20 15:30N 59°55' E 010°44'3 6.4
2017-May-20 15:00N 59°52' E 010°39'3 6.3
2017-May-20 14:30N 59°55' E 010°44'0 0.0
2017-May-20 13:29N 59°55' E 010°44'3 6.5
2017-May-20 13:00N 59°52' E 010°39'3 6.5
2017-May-20 12:30N 59°55' E 010°44'3 6.3
2017-May-20 12:00N 59°52' E 010°39'3 6.3
2017-May-20 11:30N 59°55' E 010°44'3 6.5
2017-May-20 11:00N 59°52' E 010°39'3 6.3
2017-May-20 10:30N 59°55' E 010°44'3 6.6
2017-May-20 10:01N 59°52' E 010°39'3 6.4
2017-May-20 09:30N 59°55' E 010°44'3 6.4
2017-May-20 09:00N 59°52' E 010°39'3 6.3
2017-May-20 08:30N 59°55' E 010°44'3 6.4
2017-May-20 08:00N 59°52' E 010°39'3 6.4
2017-May-20 07:30N 59°55' E 010°44'3 6.5
2017-May-20 07:00N 59°52' E 010°39'3 6.2
2017-May-20 06:30N 59°55' E 010°44'3 6.5
2017-May-20 06:00N 59°52' E 010°39'3 6.3
2017-May-20 05:30N 59°55' E 010°44'3 6.5
2017-May-20 05:00N 59°52' E 010°39'3 6.4
2017-May-20 04:30N 59°55' E 010°44'3 6.4
2017-May-20 04:00N 59°52' E 010°39'0 0.0
2017-May-20 03:29N 59°52' E 010°39'0 0.0
2017-May-20 02:59N 59°52' E 010°39'0 0.0
2017-May-20 02:29N 59°52' E 010°39'0 0.0
2017-May-20 01:59N 59°52' E 010°39'3 6.6
2017-May-20 01:30N 59°55' E 010°44'3 6.6
2017-May-20 01:00N 59°52' E 010°39'3 6.3
2017-May-20 00:30N 59°55' E 010°44'3 6.5
2017-May-20 00:00N 59°52' E 010°39'3 6.3
2017-May-19 23:30N 59°55' E 010°44'0 0.0
2017-May-19 23:00N 59°55' E 010°44'3 6.6
2017-May-19 22:31N 59°52' E 010°39'3 6.2
2017-May-19 22:00N 59°55' E 010°44'3 6.5
2017-May-19 21:30N 59°52' E 010°39'3 6.4
2017-May-19 21:00N 59°55' E 010°44'3 6.4
2017-May-19 20:30N 59°52' E 010°39'3 6.4
2017-May-19 20:00N 59°55' E 010°44'3 6.5
2017-May-19 19:31N 59°52' E 010°39'3 6.2
2017-May-19 19:00N 59°55' E 010°44'3 6.5
2017-May-19 18:30N 59°52' E 010°39'3 6.4
2017-May-19 18:00N 59°55' E 010°44'3 6.4
2017-May-19 17:30N 59°52' E 010°39'3 6.4
2017-May-19 17:00N 59°55' E 010°44'3 6.4
2017-May-19 16:30N 59°52' E 010°39'3 6.2
2017-May-19 16:00N 59°55' E 010°44'3 6.5
2017-May-19 15:30N 59°52' E 010°39'3 6.4
2017-May-19 15:00N 59°55' E 010°44'1 0.9
2017-May-19 14:00N 59°54' E 010°42'1 1.6
2017-May-19 13:30N 59°54' E 010°41'1 1.8
2017-May-19 13:00N 59°54' E 010°43'1 1.6
2017-May-19 12:30N 59°55' E 010°44'3 6.5
2017-May-19 12:00N 59°52' E 010°39'3 6.4
2017-May-19 11:30N 59°55' E 010°44'3 6.4
2017-May-19 11:00N 59°52' E 010°39'3 6.3
2017-May-19 10:30N 59°55' E 010°44'1 1.2
2017-May-19 09:58N 59°54' E 010°43'0 0.0
2017-May-19 09:28N 59°54' E 010°43'0 0.0
2017-May-19 08:58N 59°54' E 010°43'0 0.9
2017-May-19 08:30N 59°54' E 010°43'3 5.7
2017-May-19 08:00N 59°52' E 010°39'3 6.4
2017-May-19 07:31N 59°55' E 010°44'3 6.4
2017-May-19 07:00N 59°52' E 010°39'3 6.2
2017-May-19 06:30N 59°55' E 010°44'3 6.6
2017-May-19 06:00N 59°52' E 010°39'3 6.4
2017-May-19 05:30N 59°55' E 010°44'3 6.4
2017-May-19 05:00N 59°52' E 010°39'3 6.1
2017-May-19 04:29N 59°55' E 010°44'3 6.6
2017-May-19 04:01N 59°52' E 010°39'3 6.2
2017-May-19 03:30N 59°55' E 010°44'3 6.5
2017-May-19 03:00N 59°52' E 010°39'0 0.0
2017-May-19 02:30N 59°52' E 010°39'0 0.0
2017-May-19 02:00N 59°52' E 010°39'0 0.0
2017-May-19 01:30N 59°52' E 010°39'0 0.0
2017-May-19 01:00N 59°52' E 010°39'0 0.0
2017-May-19 00:30N 59°52' E 010°39'0 0.0
2017-May-19 00:00N 59°52' E 010°39'0 0.0
2017-May-18 23:30N 59°52' E 010°39'0 0.0
2017-May-18 23:00N 59°52' E 010°39'0 0.0
2017-May-18 22:31N 59°52' E 010°39'3 6.3
2017-May-18 22:00N 59°55' E 010°44'3 6.4
2017-May-18 21:30N 59°52' E 010°39'3 6.4
2017-May-18 21:00N 59°55' E 010°44'3 6.4
2017-May-18 20:30N 59°52' E 010°39'3 6.4
2017-May-18 20:00N 59°55' E 010°44'3 6.5
2017-May-18 19:31N 59°52' E 010°39'3 6.4
2017-May-18 19:01N 59°55' E 010°44'3 6.4
2017-May-18 18:30N 59°52' E 010°39'3 6.2
2017-May-18 18:00N 59°55' E 010°44'3 6.5
2017-May-18 17:30N 59°52' E 010°39'3 6.2
2017-May-18 16:59N 59°55' E 010°44'3 6.6
2017-May-18 16:30N 59°52' E 010°39'3 6.4
2017-May-18 16:00N 59°55' E 010°44'3 6.4
2017-May-18 15:30N 59°52' E 010°39'3 6.2
2017-May-18 15:00N 59°55' E 010°44'2 3.6
2017-May-18 14:30N 59°53' E 010°41'0 0.1
2017-May-18 13:30N 59°54' E 010°41'1 1.5
2017-May-18 13:00N 59°54' E 010°42'1 2.0
2017-May-18 12:31N 59°55' E 010°44'3 6.3
2017-May-18 12:01N 59°52' E 010°39'3 6.3
2017-May-18 11:30N 59°55' E 010°44'3 6.4
2017-May-18 11:01N 59°52' E 010°39'3 6.3
2017-May-18 10:30N 59°55' E 010°44'0 0.0
2017-May-18 09:58N 59°55' E 010°44'0 0.0
2017-May-18 09:28N 59°55' E 010°44'0 0.0
2017-May-18 08:58N 59°55' E 010°44'0 0.0
2017-May-18 08:30N 59°55' E 010°44'3 6.4
2017-May-18 08:00N 59°52' E 010°39'3 6.2
2017-May-18 07:30N 59°55' E 010°44'3 6.5
2017-May-18 07:00N 59°52' E 010°39'3 6.4
2017-May-18 06:30N 59°55' E 010°44'3 6.4
2017-May-18 06:00N 59°52' E 010°39'3 6.2
2017-May-18 05:30N 59°55' E 010°44'3 6.6
2017-May-18 05:00N 59°52' E 010°39'3 6.2
2017-May-18 04:30N 59°55' E 010°44'3 6.5
2017-May-18 04:00N 59°52' E 010°39'3 6.3
2017-May-18 03:30N 59°55' E 010°44'3 6.4
2017-May-18 03:00N 59°52' E 010°39'0 0.0
2017-May-18 02:30N 59°52' E 010°39'0 0.0
2017-May-18 01:58N 59°52' E 010°39'0 0.0
2017-May-18 01:28N 59°52' E 010°39'0 0.0
2017-May-18 00:58N 59°52' E 010°39'0 0.0
2017-May-18 00:28N 59°52' E 010°39'0 0.0
2017-May-17 23:58N 59°52' E 010°39'3 5.5
2017-May-17 23:30N 59°54' E 010°43'3 5.2
2017-May-17 23:00N 59°52' E 010°39'3 6.3
2017-May-17 22:30N 59°55' E 010°44'3 6.4
2017-May-17 22:00N 59°52' E 010°39'3 6.3
2017-May-17 21:30N 59°55' E 010°44'3 6.4
2017-May-17 21:00N 59°52' E 010°39'3 6.2
2017-May-17 20:30N 59°55' E 010°44'3 6.5
2017-May-17 20:00N 59°52' E 010°39'3 6.4
2017-May-17 19:30N 59°55' E 010°44'3 6.3
2017-May-17 19:00N 59°52' E 010°39'3 6.4
2017-May-17 18:30N 59°55' E 010°44'3 6.4
2017-May-17 18:00N 59°52' E 010°39'3 6.3
2017-May-17 17:30N 59°55' E 010°44'3 6.5
2017-May-17 17:00N 59°52' E 010°39'3 6.3
2017-May-17 16:30N 59°55' E 010°44'3 6.4
2017-May-17 16:00N 59°52' E 010°39'3 6.4
2017-May-17 15:30N 59°55' E 010°44'3 6.4
2017-May-17 15:00N 59°52' E 010°39'0 0.0
2017-May-17 14:00N 59°52' E 010°39'3 6.1
2017-May-17 13:29N 59°55' E 010°44'3 6.7
2017-May-17 13:00N 59°52' E 010°39'3 6.3
2017-May-17 12:30N 59°55' E 010°44'3 6.4
2017-May-17 12:00N 59°52' E 010°39'3 6.3
2017-May-17 11:30N 59°55' E 010°44'3 6.5
2017-May-17 11:00N 59°52' E 010°39'3 6.3
2017-May-17 10:30N 59°55' E 010°44'3 6.5
2017-May-17 10:00N 59°52' E 010°39'3 6.4
2017-May-17 09:30N 59°55' E 010°44'3 6.4
2017-May-17 09:00N 59°52' E 010°39'0 0.8
2017-May-17 08:26N 59°53' E 010°40'0 1.1
2017-May-17 08:00N 59°52' E 010°39'3 6.4
2017-May-17 07:30N 59°55' E 010°44'3 6.5
2017-May-17 07:00N 59°52' E 010°39'3 6.3
2017-May-17 06:30N 59°55' E 010°44'3 6.4
2017-May-17 06:00N 59°52' E 010°39'3 6.4
2017-May-17 05:30N 59°55' E 010°44'3 6.3
2017-May-17 05:00N 59°52' E 010°39'3 6.3
2017-May-17 04:30N 59°55' E 010°44'3 6.5
2017-May-17 04:00N 59°52' E 010°39'  

Dump ship's entire track history